Time;durP1;ratioP1;P1;durP2;ratioP2;P2;SDS_P1;SDS_P2;PMS_P1;PMS_P2;Temp;Humidity;BMP_temperature;BMP_pressure;BME280_temperature;BME280_humidity;BME280_pressure;Samples;Min_cycle;Max_cycle;Signal;HPM_P1;HPM_P2
2022/11/12 00:00:17;;;;;;;243.70;120.80;;;;;;;;;;5019135;28;20187;-70
2022/11/12 00:02:43;;;;;;;311.47;145.03;;;;;;;;;;5019401;28;20285;-70
2022/11/12 00:05:09;;;;;;;290.30;138.83;;;;;;;;;;5006665;28;20224;-70
2022/11/12 00:07:35;;;;;;;191.60;104.30;;;;;;;;;;5019771;28;20579;-70
2022/11/12 00:10:01;;;;;;;233.07;117.03;;;;;;;;;;5021564;28;20219;-70
2022/11/12 00:12:27;;;;;;;198.87;106.60;;;;;;;;;;5022384;28;20196;-70
2022/11/12 00:14:52;;;;;;;190.57;102.47;;;;;;;;;;5015532;28;20210;-70
2022/11/12 00:17:18;;;;;;;220.73;111.87;;;;;;;;;;5019128;28;20265;-70
2022/11/12 00:19:44;;;;;;;296.53;138.53;;;;;;;;;;5017091;28;20823;-71
2022/11/12 00:22:10;;;;;;;220.23;113.13;;;;;;;;;;5018107;28;20208;-70
2022/11/12 00:24:36;;;;;;;260.77;127.27;;;;;;;;;;5014910;28;20202;-70
2022/11/12 00:27:02;;;;;;;204.43;106.67;;;;;;;;;;5016765;28;20215;-70
2022/11/12 00:29:28;;;;;;;271.53;127.67;;;;;;;;;;5003566;28;20581;-70
2022/11/12 00:31:54;;;;;;;189.43;102.63;;;;;;;;;;5024061;28;20216;-70
2022/11/12 00:34:20;;;;;;;201.57;105.97;;;;;;;;;;5022864;28;20247;-70
2022/11/12 00:36:46;;;;;;;175.90;97.47;;;;;;;;;;5028869;28;20235;-70
2022/11/12 00:39:11;;;;;;;290.73;137.83;;;;;;;;;;5022460;28;20803;-70
2022/11/12 00:41:37;;;;;;;181.90;102.37;;;;;;;;;;5020748;28;20222;-70
2022/11/12 00:44:03;;;;;;;251.03;122.93;;;;;;;;;;5022277;28;20322;-70
2022/11/12 00:46:30;;;;;;;281.73;130.30;;;;;;;;;;5017327;28;20255;-70
2022/11/12 00:48:56;;;;;;;198.40;102.83;;;;;;;;;;5023765;28;20220;-70
2022/11/12 00:51:22;;;;;;;169.07;95.80;;;;;;;;;;5020225;28;20238;-70
2022/11/12 00:53:48;;;;;;;272.73;128.00;;;;;;;;;;5013858;28;20220;-70
2022/11/12 00:56:14;;;;;;;332.93;149.70;;;;;;;;;;5003970;28;20243;-70
2022/11/12 00:58:40;;;;;;;220.13;111.90;;;;;;;;;;5005000;28;20242;-70
2022/11/12 01:01:13;;;;;;;277.57;129.93;;;;;;;;;;5011623;28;20212;-70
2022/11/12 01:03:39;;;;;;;180.63;97.93;;;;;;;;;;5018226;28;20238;-69
2022/11/12 01:06:06;;;;;;;239.40;116.77;;;;;;;;;;5006132;28;20215;-70
2022/11/12 01:08:32;;;;;;;234.10;116.07;;;;;;;;;;5001131;28;20219;-70
2022/11/12 01:11:04;;;;;;;246.20;120.37;;;;;;;;;;5013796;28;20307;-70
2022/11/12 01:13:30;;;;;;;166.80;94.90;;;;;;;;;;5022910;28;20215;-70
2022/11/12 01:15:56;;;;;;;251.80;119.47;;;;;;;;;;5012779;28;20209;-70
2022/11/12 01:18:22;;;;;;;268.23;128.50;;;;;;;;;;5013372;28;20185;-70
2022/11/12 01:20:48;;;;;;;190.10;99.53;;;;;;;;;;5021668;28;20689;-70
2022/11/12 01:23:14;;;;;;;234.00;114.00;;;;;;;;;;5014111;28;20220;-70
2022/11/12 01:25:40;;;;;;;266.07;126.07;;;;;;;;;;5017096;28;20657;-70
2022/11/12 01:28:05;;;;;;;197.97;102.87;;;;;;;;;;5017073;28;20281;-70
2022/11/12 01:30:31;;;;;;;283.37;133.03;;;;;;;;;;5019634;28;20274;-69
2022/11/12 01:32:57;;;;;;;223.70;110.80;;;;;;;;;;5024310;28;20218;-70
2022/11/12 01:35:23;;;;;;;218.20;111.10;;;;;;;;;;5019016;28;20212;-70
2022/11/12 01:37:50;;;;;;;182.63;98.77;;;;;;;;;;5027346;28;20215;-70
2022/11/12 01:40:16;;;;;;;274.50;128.10;;;;;;;;;;5022910;28;20208;-70
2022/11/12 01:42:42;;;;;;;179.17;97.67;;;;;;;;;;5013353;28;20200;-70
2022/11/12 01:45:14;;;;;;;301.67;141.90;;;;;;;;;;5020918;28;20547;-70
2022/11/12 01:47:42;;;;;;;178.00;97.33;;;;;;;;;;5011855;28;20219;-70
2022/11/12 01:50:14;;;;;;;206.07;105.87;;;;;;;;;;5011385;28;20212;-70
2022/11/12 01:52:43;;;;;;;200.40;102.10;;;;;;;;;;5005724;28;20208;-70
2022/11/12 01:55:11;;;;;;;201.00;102.83;;;;;;;;;;5010996;28;20218;-70
2022/11/12 01:57:40;;;;;;;176.97;96.47;;;;;;;;;;5019855;28;20188;-70
2022/11/12 02:00:11;;;;;;;230.90;113.63;;;;;;;;;;5009435;28;20703;-70
2022/11/12 02:02:38;;;;;;;226.83;111.20;;;;;;;;;;5013617;28;20216;-70
2022/11/12 02:05:06;;;;;;;227.90;114.67;;;;;;;;;;5013175;28;20223;-70
2022/11/12 02:07:32;;;;;;;159.90;91.73;;;;;;;;;;5019064;28;20227;-70
2022/11/12 02:10:00;;;;;;;247.13;119.77;;;;;;;;;;5011283;28;20219;-70
2022/11/12 02:15:11;;;;;;;268.93;125.90;;;;;;;;;;5009814;28;20202;-70
2022/11/12 02:17:37;;;;;;;170.27;93.97;;;;;;;;;;5014507;28;20589;-70
2022/11/12 02:20:03;;;;;;;170.77;93.80;;;;;;;;;;5003736;28;20282;-70
2022/11/12 02:22:29;;;;;;;256.87;121.70;;;;;;;;;;5007687;28;20224;-70
2022/11/12 02:24:55;;;;;;;205.83;106.20;;;;;;;;;;5018183;28;20234;-70
2022/11/12 02:27:21;;;;;;;213.90;106.43;;;;;;;;;;5010776;28;20234;-70
2022/11/12 02:29:47;;;;;;;156.43;90.40;;;;;;;;;;5009666;28;20244;-70
2022/11/12 02:32:13;;;;;;;159.60;90.13;;;;;;;;;;5013332;28;20255;-70
2022/11/12 02:34:39;;;;;;;151.13;88.67;;;;;;;;;;5016127;28;20651;-70
2022/11/12 02:37:05;;;;;;;239.70;114.53;;;;;;;;;;5019856;28;20585;-70
2022/11/12 02:39:31;;;;;;;186.00;100.60;;;;;;;;;;5015855;28;20646;-70
2022/11/12 02:41:57;;;;;;;159.50;90.07;;;;;;;;;;5014986;28;20204;-70
2022/11/12 02:44:23;;;;;;;148.80;87.07;;;;;;;;;;5015285;28;20205;-70
2022/11/12 02:46:49;;;;;;;211.70;107.23;;;;;;;;;;5010079;28;20212;-69
2022/11/12 02:49:15;;;;;;;165.60;91.77;;;;;;;;;;5015687;28;20208;-69
2022/11/12 02:51:41;;;;;;;179.90;99.37;;;;;;;;;;5009331;28;20207;-69
2022/11/12 02:54:07;;;;;;;205.87;106.03;;;;;;;;;;5014548;28;20180;-69
2022/11/12 02:56:34;;;;;;;235.30;114.27;;;;;;;;;;5003209;28;20219;-69
2022/11/12 02:59:00;;;;;;;203.73;104.97;;;;;;;;;;5002829;28;20212;-70
2022/11/12 03:01:26;;;;;;;283.97;130.80;;;;;;;;;;5003963;28;20714;-70
2022/11/12 03:03:51;;;;;;;160.10;90.33;;;;;;;;;;5015804;28;21007;-69
2022/11/12 03:06:17;;;;;;;150.27;86.70;;;;;;;;;;5019724;28;20778;-69
2022/11/12 03:08:43;;;;;;;185.40;99.43;;;;;;;;;;5012310;28;20216;-69
2022/11/12 03:11:10;;;;;;;218.80;109.00;;;;;;;;;;4999134;28;20220;-69
2022/11/12 03:13:36;;;;;;;222.77;112.10;;;;;;;;;;5013519;28;20714;-69
2022/11/12 03:16:02;;;;;;;173.30;95.60;;;;;;;;;;5015682;28;20208;-69
2022/11/12 03:18:28;;;;;;;207.30;106.73;;;;;;;;;;5002618;28;20630;-69
2022/11/12 03:20:54;;;;;;;131.77;82.33;;;;;;;;;;5020408;28;20180;-69
2022/11/12 03:23:20;;;;;;;181.47;98.47;;;;;;;;;;5017556;28;20555;-69
2022/11/12 03:25:46;;;;;;;129.77;82.17;;;;;;;;;;5020276;28;20220;-70
2022/11/12 03:28:13;;;;;;;157.50;89.47;;;;;;;;;;5027251;28;20219;-69
2022/11/12 03:30:40;;;;;;;193.83;100.83;;;;;;;;;;5019531;28;20258;-70
2022/11/12 03:33:07;;;;;;;159.23;90.13;;;;;;;;;;5010841;28;20685;-70
2022/11/12 03:35:33;;;;;;;132.67;83.17;;;;;;;;;;5012258;28;20266;-69
2022/11/12 03:37:59;;;;;;;177.93;95.93;;;;;;;;;;5010218;28;20281;-69
2022/11/12 03:40:25;;;;;;;175.90;97.13;;;;;;;;;;5022458;28;20212;-69
2022/11/12 03:42:51;;;;;;;138.97;85.07;;;;;;;;;;5026699;28;20285;-69
2022/11/12 03:45:18;;;;;;;229.47;113.83;;;;;;;;;;5014386;28;20259;-70
2022/11/12 03:47:45;;;;;;;168.80;93.73;;;;;;;;;;5017183;28;20299;-69
2022/11/12 03:50:12;;;;;;;189.40;101.40;;;;;;;;;;5020609;28;20227;-70
2022/11/12 03:52:38;;;;;;;148.17;88.33;;;;;;;;;;5025811;28;20239;-69
2022/11/12 03:55:05;;;;;;;202.63;107.40;;;;;;;;;;5018982;28;20223;-69
2022/11/12 03:57:30;;;;;;;122.07;79.40;;;;;;;;;;5022289;28;20196;-69
2022/11/12 03:59:56;;;;;;;119.00;77.83;;;;;;;;;;5019719;28;20184;-69
2022/11/12 04:02:25;;;;;;;273.10;126.53;;;;;;;;;;5006698;28;20221;-70
2022/11/12 04:10:20;;;;;;;219.43;107.23;;;;;;;;;;5015644;28;20262;-70
2022/11/12 04:15:31;;;;;;;192.93;99.53;;;;;;;;;;5008833;28;20281;-69
2022/11/12 04:23:26;;;;;;;178.27;95.80;;;;;;;;;;5013127;28;20812;-69
2022/11/12 04:28:37;;;;;;;224.50;110.13;;;;;;;;;;5006198;28;20226;-70
2022/11/12 04:31:06;;;;;;;163.57;91.03;;;;;;;;;;5010771;28;20586;-68
2022/11/12 04:33:32;;;;;;;111.10;76.30;;;;;;;;;;5024112;28;20196;-68
2022/11/12 04:35:58;;;;;;;110.33;75.03;;;;;;;;;;5026717;28;20549;-68
2022/11/12 04:38:24;;;;;;;106.17;73.33;;;;;;;;;;5026081;28;20211;-68
2022/11/12 04:46:19;;;;;;;149.00;85.53;;;;;;;;;;5021039;28;20231;-68
2022/11/12 04:48:45;;;;;;;154.93;87.77;;;;;;;;;;5005669;28;20180;-68
2022/11/12 04:53:56;;;;;;;129.70;81.20;;;;;;;;;;5013135;28;20250;-68
2022/11/12 04:56:22;;;;;;;167.77;91.83;;;;;;;;;;5011395;28;22124;-68
2022/11/12 04:58:47;;;;;;;147.83;85.47;;;;;;;;;;5008101;28;20307;-68
2022/11/12 05:01:13;;;;;;;166.13;91.90;;;;;;;;;;5011747;28;20303;-68
2022/11/12 05:03:39;;;;;;;130.07;82.93;;;;;;;;;;5010276;28;20239;-68
2022/11/12 05:08:51;;;;;;;104.30;73.27;;;;;;;;;;5020479;28;20265;-69
2022/11/12 05:11:16;;;;;;;211.30;106.37;;;;;;;;;;5012211;28;20212;-68
2022/11/12 05:13:42;;;;;;;115.10;76.60;;;;;;;;;;5009811;28;20220;-68
2022/11/12 05:16:08;;;;;;;180.20;94.37;;;;;;;;;;5007689;28;20925;-69
2022/11/12 05:18:34;;;;;;;186.27;98.27;;;;;;;;;;5015618;28;20203;-68
2022/11/12 05:22:03;;;;;;;259.53;122.73;;;;;;;;;;5005973;28;20799;-68
2022/11/12 05:23:46;;;;;;;214.27;105.90;;;;;;;;;;5007197;28;20246;-69
2022/11/12 05:26:12;;;;;;;123.83;78.13;;;;;;;;;;5012442;28;20299;-68
2022/11/12 05:28:38;;;;;;;105.77;74.17;;;;;;;;;;5018093;28;20311;-69
2022/11/12 05:31:04;;;;;;;123.33;80.50;;;;;;;;;;5015362;28;20230;-69
2022/11/12 05:33:29;;;;;;;106.20;74.97;;;;;;;;;;5019621;28;20194;-69
2022/11/12 05:35:56;;;;;;;144.67;85.00;;;;;;;;;;5021345;28;20184;-69
2022/11/12 05:38:22;;;;;;;170.13;91.87;;;;;;;;;;4999633;28;20238;-68
2022/11/12 05:40:48;;;;;;;168.47;91.47;;;;;;;;;;5017798;28;20714;-68
2022/11/12 05:43:14;;;;;;;240.40;113.90;;;;;;;;;;5006853;28;20208;-68
2022/11/12 05:45:43;;;;;;;120.20;81.50;;;;;;;;;;5010694;28;20206;-68
2022/11/12 05:48:09;;;;;;;167.37;92.40;;;;;;;;;;5021185;28;20198;-69
2022/11/12 05:50:35;;;;;;;210.07;103.17;;;;;;;;;;5019498;28;20227;-68
2022/11/12 05:53:01;;;;;;;225.03;110.93;;;;;;;;;;5009304;28;20216;-68
2022/11/12 05:55:27;;;;;;;150.67;85.43;;;;;;;;;;5017359;28;20204;-68
2022/11/12 05:57:53;;;;;;;185.33;97.73;;;;;;;;;;5006805;28;20239;-68
2022/11/12 06:00:19;;;;;;;157.27;89.43;;;;;;;;;;5004399;28;20645;-68
2022/11/12 06:02:45;;;;;;;201.33;104.23;;;;;;;;;;5007946;28;20220;-68
2022/11/12 06:05:11;;;;;;;237.13;114.83;;;;;;;;;;4997388;28;20220;-69
2022/11/12 06:07:36;;;;;;;141.90;84.33;;;;;;;;;;5007826;28;20698;-68
2022/11/12 06:10:02;;;;;;;139.87;82.03;;;;;;;;;;5007552;28;20628;-68
2022/11/12 06:12:28;;;;;;;238.03;115.23;;;;;;;;;;5006747;28;20205;-68
2022/11/12 06:14:54;;;;;;;204.67;105.37;;;;;;;;;;5004092;28;20193;-69
2022/11/12 06:17:20;;;;;;;203.30;102.97;;;;;;;;;;5011117;28;20559;-68
2022/11/12 06:19:46;;;;;;;227.20;111.93;;;;;;;;;;4999863;28;20227;-68
2022/11/12 06:22:12;;;;;;;166.53;91.27;;;;;;;;;;5013149;28;21733;-68
2022/11/12 06:24:38;;;;;;;171.67;93.20;;;;;;;;;;5005452;28;20216;-69
2022/11/12 06:27:04;;;;;;;103.47;71.67;;;;;;;;;;5024274;28;20183;-68
2022/11/12 06:29:30;;;;;;;117.37;75.83;;;;;;;;;;5009317;28;20204;-69
2022/11/12 06:31:55;;;;;;;171.03;94.17;;;;;;;;;;5010364;28;20654;-76
2022/11/12 06:34:21;;;;;;;125.37;78.23;;;;;;;;;;5013666;28;20212;-78
2022/11/12 06:36:48;;;;;;;106.43;74.83;;;;;;;;;;5021193;28;20215;-77
2022/11/12 06:39:14;;;;;;;187.33;100.17;;;;;;;;;;5014491;28;20330;-79
2022/11/12 06:41:40;;;;;;;94.33;72.17;;;;;;;;;;5011472;28;20212;-77
2022/11/12 06:44:06;;;;;;;180.57;97.17;;;;;;;;;;5018903;28;20208;-77
2022/11/12 06:46:32;;;;;;;216.80;105.87;;;;;;;;;;5012869;28;20926;-77
2022/11/12 06:48:57;;;;;;;121.23;78.83;;;;;;;;;;5023952;28;20266;-77
2022/11/12 06:51:24;;;;;;;128.27;79.17;;;;;;;;;;5013964;28;20306;-77
2022/11/12 06:53:50;;;;;;;113.57;79.43;;;;;;;;;;5011470;28;20231;-76
2022/11/12 06:56:16;;;;;;;168.30;93.97;;;;;;;;;;5006341;28;20254;-77
2022/11/12 06:58:42;;;;;;;227.63;111.93;;;;;;;;;;5006645;28;20244;-76
2022/11/12 07:01:11;;;;;;;201.40;104.20;;;;;;;;;;5013941;28;20238;-76
2022/11/12 07:03:37;;;;;;;127.93;81.63;;;;;;;;;;5008074;28;20177;-76
2022/11/12 07:06:04;;;;;;;164.57;91.47;;;;;;;;;;5012279;28;20243;-75
2022/11/12 07:08:30;;;;;;;113.37;76.43;;;;;;;;;;5019545;28;20576;-76
2022/11/12 07:10:57;;;;;;;181.53;96.43;;;;;;;;;;5016609;28;21017;-81
2022/11/12 07:13:23;;;;;;;194.77;99.50;;;;;;;;;;4994935;28;20297;-76
2022/11/12 07:15:49;;;;;;;213.53;110.53;;;;;;;;;;5006810;28;20212;-76
2022/11/12 07:18:15;;;;;;;117.03;78.33;;;;;;;;;;5005945;28;20667;-76
2022/11/12 07:20:41;;;;;;;176.53;99.07;;;;;;;;;;5012619;28;21013;-77
2022/11/12 07:23:06;;;;;;;199.03;107.10;;;;;;;;;;5017197;28;20216;-77
2022/11/12 07:25:32;;;;;;;330.83;153.67;;;;;;;;;;5013812;28;20231;-77
2022/11/12 07:27:58;;;;;;;214.70;110.53;;;;;;;;;;5011344;28;20310;-76
2022/11/12 07:30:24;;;;;;;268.37;129.57;;;;;;;;;;4998867;28;22113;-77
2022/11/12 07:32:50;;;;;;;178.70;100.67;;;;;;;;;;5006800;28;20299;-76
2022/11/12 07:35:16;;;;;;;152.17;88.53;;;;;;;;;;5007922;28;20250;-75
2022/11/12 07:37:42;;;;;;;186.10;103.40;;;;;;;;;;5021673;28;20238;-76
2022/11/12 07:40:08;;;;;;;221.67;112.67;;;;;;;;;;5011268;28;20216;-76
2022/11/12 07:42:35;;;;;;;176.83;97.90;;;;;;;;;;5014852;28;20223;-77
2022/11/12 07:45:01;;;;;;;247.37;123.60;;;;;;;;;;5014112;28;20291;-78
2022/11/12 07:47:27;;;;;;;187.73;100.93;;;;;;;;;;5021492;28;20706;-75
2022/11/12 07:49:53;;;;;;;149.90;88.07;;;;;;;;;;5016171;28;20219;-77
2022/11/12 07:52:19;;;;;;;174.63;95.30;;;;;;;;;;5013906;28;20217;-75
2022/11/12 07:54:45;;;;;;;350.67;160.30;;;;;;;;;;5002941;28;22188;-82
2022/11/12 07:57:11;;;;;;;152.27;91.20;;;;;;;;;;5011201;28;20286;-76
2022/11/12 07:59:37;;;;;;;243.23;118.83;;;;;;;;;;5005499;28;20218;-73
2022/11/12 08:02:02;;;;;;;143.80;88.93;;;;;;;;;;5014344;28;20779;-72
2022/11/12 08:04:28;;;;;;;192.13;103.40;;;;;;;;;;5019470;28;20216;-74
2022/11/12 08:06:54;;;;;;;135.33;88.50;;;;;;;;;;5021554;28;20227;-74
2022/11/12 08:09:20;;;;;;;230.10;114.80;;;;;;;;;;5020913;28;20673;-74
2022/11/12 08:11:46;;;;;;;181.53;100.10;;;;;;;;;;5017054;28;20268;-75
2022/11/12 08:14:12;;;;;;;215.73;109.53;;;;;;;;;;5020174;28;20609;-75
2022/11/12 08:16:38;;;;;;;217.97;111.23;;;;;;;;;;5014382;28;20222;-75
2022/11/12 08:19:04;;;;;;;206.27;107.90;;;;;;;;;;5022629;28;20220;-76
2022/11/12 08:21:30;;;;;;;177.37;102.40;;;;;;;;;;5014905;28;20216;-73
2022/11/12 08:23:56;;;;;;;184.63;102.53;;;;;;;;;;5015033;28;21347;-75
2022/11/12 08:26:22;;;;;;;160.03;95.90;;;;;;;;;;5023871;28;21658;-75
2022/11/12 08:28:48;;;;;;;168.90;102.13;;;;;;;;;;5011324;28;20216;-79
2022/11/12 08:31:15;;;;;;;165.70;96.57;;;;;;;;;;5022913;28;20291;-74
2022/11/12 08:33:41;;;;;;;320.73;153.87;;;;;;;;;;5007021;28;20192;-70
2022/11/12 08:36:08;;;;;;;279.67;138.37;;;;;;;;;;5023848;28;20180;-76
2022/11/12 08:38:35;;;;;;;170.67;99.07;;;;;;;;;;5020472;28;20248;-75
2022/11/12 08:41:01;;;;;;;202.63;108.00;;;;;;;;;;5024250;28;20220;-79
2022/11/12 08:43:27;;;;;;;253.93;125.40;;;;;;;;;;5002129;28;20231;-75
2022/11/12 08:45:53;;;;;;;249.50;119.83;;;;;;;;;;5014114;28;21218;-68
2022/11/12 08:48:19;;;;;;;281.90;135.00;;;;;;;;;;5005226;28;20602;-67
2022/11/12 08:50:44;;;;;;;312.37;144.13;;;;;;;;;;5016922;28;20281;-70
2022/11/12 08:53:11;;;;;;;249.70;124.30;;;;;;;;;;5017775;28;20601;-71
2022/11/12 08:55:37;;;;;;;261.40;126.07;;;;;;;;;;5010822;28;20251;-69
2022/11/12 08:58:04;;;;;;;160.17;95.87;;;;;;;;;;5024178;28;20208;-71
2022/11/12 09:00:33;;;;;;;167.93;97.33;;;;;;;;;;5025808;28;20180;-68
2022/11/12 09:03:00;;;;;;;149.30;96.17;;;;;;;;;;5021632;28;20196;-75
2022/11/12 09:05:26;;;;;;;155.17;97.30;;;;;;;;;;5026387;28;20618;-75
2022/11/12 09:07:59;;;;;;;167.53;98.90;;;;;;;;;;5024663;28;20326;-78
2022/11/12 09:10:25;;;;;;;160.03;97.40;;;;;;;;;;5025695;28;20212;-76
2022/11/12 09:12:51;;;;;;;220.27;116.67;;;;;;;;;;5017314;28;20219;-75
2022/11/12 09:15:17;;;;;;;158.87;96.17;;;;;;;;;;5024395;28;20666;-76
2022/11/12 09:17:43;;;;;;;233.43;117.70;;;;;;;;;;5006520;28;20220;-76
2022/11/12 09:20:09;;;;;;;278.00;132.77;;;;;;;;;;5003403;28;20219;-75
2022/11/12 09:22:35;;;;;;;151.73;95.17;;;;;;;;;;5007510;28;20315;-75
2022/11/12 09:25:01;;;;;;;198.57;108.23;;;;;;;;;;5019827;28;20223;-75
2022/11/12 09:27:27;;;;;;;164.07;97.70;;;;;;;;;;5026369;28;20207;-75
2022/11/12 09:29:53;;;;;;;210.63;114.33;;;;;;;;;;5022662;28;20235;-75
2022/11/12 09:32:19;;;;;;;196.23;110.80;;;;;;;;;;5016633;28;20744;-76
2022/11/12 09:34:45;;;;;;;268.27;142.50;;;;;;;;;;5017603;28;20303;-75
2022/11/12 09:37:11;;;;;;;217.00;116.67;;;;;;;;;;5020313;28;20394;-75
2022/11/12 09:39:37;;;;;;;329.07;164.27;;;;;;;;;;5017819;28;20542;-76
2022/11/12 09:42:07;;;;;;;171.97;101.23;;;;;;;;;;5017803;28;20246;-75
2022/11/12 09:44:34;;;;;;;163.43;99.07;;;;;;;;;;5022843;28;20219;-75
2022/11/12 09:47:06;;;;;;;196.23;111.67;;;;;;;;;;5024734;28;20312;-76
2022/11/12 09:49:38;;;;;;;184.60;108.93;;;;;;;;;;5023326;28;20205;-75
2022/11/12 09:52:09;;;;;;;185.90;109.50;;;;;;;;;;5022360;28;20289;-76
2022/11/12 09:54:36;;;;;;;190.40;109.97;;;;;;;;;;5024694;28;20192;-76
2022/11/12 09:57:02;;;;;;;195.53;112.23;;;;;;;;;;5024474;28;20180;-77
2022/11/12 09:59:29;;;;;;;188.70;109.00;;;;;;;;;;5026328;28;20204;-74
2022/11/12 10:02:22;;;;;;;193.83;108.83;;;;;;;;;;5022734;28;20224;-75
2022/11/12 10:05:06;;;;;;;262.47;131.83;;;;;;;;;;5012663;28;23217;-72
2022/11/12 10:07:43;;;;;;;256.00;131.60;;;;;;;;;;5007731;28;20219;-75
2022/11/12 10:10:12;;;;;;;257.90;131.43;;;;;;;;;;5012645;28;20875;-75
2022/11/12 10:12:50;;;;;;;267.37;136.80;;;;;;;;;;5018212;28;20203;-74
2022/11/12 10:18:22;;;;;;;201.43;111.50;;;;;;;;;;5022172;28;20223;-76
2022/11/12 10:20:53;;;;;;;189.43;109.60;;;;;;;;;;5022784;28;20654;-75
2022/11/12 10:23:22;;;;;;;216.07;116.60;;;;;;;;;;5016029;28;20230;-75
2022/11/12 10:25:50;;;;;;;251.40;124.97;;;;;;;;;;5013476;28;20254;-74
2022/11/12 10:28:37;;;;;;;246.23;125.73;;;;;;;;;;5007104;28;21077;-75
2022/11/12 10:31:14;;;;;;;234.23;122.80;;;;;;;;;;5006446;28;20269;-73
2022/11/12 10:33:40;;;;;;;234.80;125.93;;;;;;;;;;5020176;28;20210;-75
2022/11/12 10:36:18;;;;;;;196.00;109.60;;;;;;;;;;5026406;28;20180;-72
2022/11/12 10:38:47;;;;;;;255.53;129.17;;;;;;;;;;5025239;28;20501;-73
2022/11/12 10:41:19;;;;;;;203.87;109.63;;;;;;;;;;5028952;28;20601;-73
2022/11/12 10:43:57;;;;;;;198.93;110.50;;;;;;;;;;5026649;28;20585;-73
2022/11/12 10:46:26;;;;;;;202.47;114.07;;;;;;;;;;5028119;28;20273;-73
2022/11/12 10:48:53;;;;;;;186.30;109.73;;;;;;;;;;5027841;28;20238;-73
2022/11/12 10:51:25;;;;;;;208.57;117.83;;;;;;;;;;5027010;28;20549;-73
2022/11/12 10:53:50;;;;;;;196.37;112.53;;;;;;;;;;5026167;28;20215;-73
2022/11/12 10:56:25;;;;;;;199.90;110.90;;;;;;;;;;5027573;28;20273;-73
2022/11/12 10:59:13;;;;;;;214.77;116.47;;;;;;;;;;5022279;28;20692;-73
2022/11/12 11:01:39;;;;;;;191.50;107.03;;;;;;;;;;5023710;28;20216;-73
2022/11/12 11:04:05;;;;;;;193.53;108.10;;;;;;;;;;5028868;28;20316;-72
2022/11/12 11:06:32;;;;;;;201.47;110.40;;;;;;;;;;5029293;28;20461;-74
2022/11/12 11:09:13;;;;;;;202.67;113.60;;;;;;;;;;5028040;28;20176;-74
2022/11/12 11:11:48;;;;;;;197.87;109.90;;;;;;;;;;5022255;28;20216;-74
2022/11/12 11:14:24;;;;;;;205.17;115.90;;;;;;;;;;5028479;28;20276;-73
2022/11/12 11:16:54;;;;;;;280.80;138.37;;;;;;;;;;5007349;28;20764;-73
2022/11/12 11:19:20;;;;;;;279.43;138.07;;;;;;;;;;5009681;28;20505;-73
2022/11/12 11:21:55;;;;;;;305.53;150.33;;;;;;;;;;5008295;28;20223;-72
2022/11/12 11:24:41;;;;;;;304.47;146.83;;;;;;;;;;5011220;28;20208;-73
2022/11/12 11:27:29;;;;;;;261.73;131.40;;;;;;;;;;5011023;28;20262;-73
2022/11/12 11:30:08;;;;;;;344.77;160.93;;;;;;;;;;5011498;28;20380;-72
2022/11/12 11:32:50;;;;;;;326.00;157.77;;;;;;;;;;5001840;28;20220;-72
2022/11/12 11:35:31;;;;;;;326.90;154.27;;;;;;;;;;5008182;28;20675;-73
2022/11/12 11:37:57;;;;;;;413.70;185.23;;;;;;;;;;5012439;28;20215;-72
2022/11/12 11:40:29;;;;;;;434.47;199.73;;;;;;;;;;5005954;28;20298;-72
2022/11/12 11:43:14;;;;;;;395.73;180.63;;;;;;;;;;5006559;28;21654;-74
2022/11/12 11:45:49;;;;;;;409.73;187.70;;;;;;;;;;5003294;28;20296;-73
2022/11/12 11:48:26;;;;;;;472.10;206.97;;;;;;;;;;5005645;28;20188;-75
2022/11/12 11:51:11;;;;;;;440.83;196.17;;;;;;;;;;4996895;28;20212;-74
2022/11/12 11:53:37;;;;;;;415.43;185.23;;;;;;;;;;5011124;28;20216;-74
2022/11/12 11:56:09;;;;;;;400.83;176.47;;;;;;;;;;5002361;28;20230;-74
2022/11/12 11:58:37;;;;;;;393.40;185.00;;;;;;;;;;5005716;28;20850;-74
2022/11/12 12:01:19;;;;;;;392.57;179.87;;;;;;;;;;5005850;28;20216;-73
2022/11/12 12:03:56;;;;;;;419.30;196.90;;;;;;;;;;5020729;28;20924;-74
2022/11/12 12:06:38;;;;;;;456.70;212.27;;;;;;;;;;5011551;28;20958;-78
2022/11/12 12:09:16;;;;;;;371.73;176.03;;;;;;;;;;5013381;28;20689;-78
2022/11/12 12:11:50;;;;;;;551.33;255.00;;;;;;;;;;5009996;28;20219;-79
2022/11/12 12:14:21;;;;;;;392.07;183.20;;;;;;;;;;5014208;28;20285;-79
2022/11/12 12:17:02;;;;;;;377.17;177.43;;;;;;;;;;5007158;28;20212;-79
2022/11/12 12:19:45;;;;;;;346.10;165.63;;;;;;;;;;5013126;28;20266;-78
2022/11/12 12:22:20;;;;;;;431.67;204.20;;;;;;;;;;5020907;28;20219;-78
2022/11/12 12:24:46;;;;;;;423.23;199.73;;;;;;;;;;5014588;28;20277;-80
2022/11/12 12:27:14;;;;;;;428.87;200.73;;;;;;;;;;5017174;28;20219;-79
2022/11/12 12:29:47;;;;;;;345.90;164.23;;;;;;;;;;5011404;28;20208;-76
2022/11/12 12:32:31;;;;;;;331.73;158.50;;;;;;;;;;5018178;28;20239;-77
2022/11/12 12:35:03;;;;;;;369.93;176.77;;;;;;;;;;5011788;28;20216;-78
2022/11/12 12:37:35;;;;;;;461.33;216.23;;;;;;;;;;5008222;28;20229;-77
2022/11/12 12:40:05;;;;;;;327.63;153.97;;;;;;;;;;5013948;28;20216;-78
2022/11/12 12:42:37;;;;;;;366.07;174.17;;;;;;;;;;5013784;28;20226;-78
2022/11/12 12:45:22;;;;;;;427.60;202.67;;;;;;;;;;5006226;28;20239;-77
2022/11/12 12:47:49;;;;;;;375.50;179.63;;;;;;;;;;5012312;28;20220;-78
2022/11/12 12:50:17;;;;;;;445.30;211.50;;;;;;;;;;5010825;28;20250;-77
2022/11/12 12:53:02;;;;;;;425.10;200.17;;;;;;;;;;5011600;28;20224;-78
2022/11/12 12:55:39;;;;;;;404.03;195.13;;;;;;;;;;5020757;28;20320;-78
2022/11/12 12:58:15;;;;;;;482.07;227.27;;;;;;;;;;5014559;28;20215;-79
2022/11/12 13:00:45;;;;;;;355.23;172.07;;;;;;;;;;5020234;28;20553;-79
2022/11/12 13:03:11;;;;;;;354.00;163.40;;;;;;;;;;5016214;28;20211;-79
2022/11/12 13:05:41;;;;;;;487.80;234.60;;;;;;;;;;5019623;28;20526;-79
2022/11/12 13:08:09;;;;;;;469.50;222.57;;;;;;;;;;5007588;28;20219;-77
2022/11/12 13:10:38;;;;;;;394.73;188.57;;;;;;;;;;5009217;28;20216;-78
2022/11/12 13:13:04;;;;;;;407.93;197.07;;;;;;;;;;5002664;28;20219;-78
2022/11/12 13:15:52;;;;;;;419.10;199.33;;;;;;;;;;5011825;28;20188;-78
2022/11/12 13:18:36;;;;;;;401.00;191.23;;;;;;;;;;5010302;28;20743;-79
2022/11/12 13:21:10;;;;;;;387.20;189.13;;;;;;;;;;5007321;28;20325;-79
2022/11/12 13:24:09;;;;;;;400.13;199.32;;;;;;;;;;5009612;28;20231;-78
2022/11/12 13:26:49;;;;;;;395.42;195.68;;;;;;;;;;5002611;28;20219;-80
2022/11/12 13:29:24;;;;;;;441.63;221.65;;;;;;;;;;5007105;28;20224;-79
2022/11/12 13:32:10;;;;;;;407.53;203.00;;;;;;;;;;5004254;28;25079;-78
2022/11/12 13:34:36;;;;;;;362.05;174.07;;;;;;;;;;5019630;28;25056;-78
2022/11/12 13:37:03;;;;;;;369.88;183.48;;;;;;;;;;5023042;28;20220;-78
2022/11/12 13:39:31;;;;;;;481.17;229.87;;;;;;;;;;5006869;28;20215;-78
2022/11/12 13:44:43;;;;;;;382.93;186.90;;;;;;;;;;5022349;28;20242;-78
2022/11/12 13:47:17;;;;;;;428.83;203.70;;;;;;;;;;5016851;28;25055;-78
2022/11/12 13:49:45;;;;;;;326.13;166.03;;;;;;;;;;5023193;28;20732;-78
2022/11/12 13:52:14;;;;;;;367.87;182.57;;;;;;;;;;5014269;28;20267;-77
2022/11/12 13:54:39;;;;;;;350.80;181.20;;;;;;;;;;5006770;28;20198;-79
2022/11/12 13:57:23;;;;;;;381.37;190.20;;;;;;;;;;5006190;28;20201;-78
2022/11/12 14:00:06;;;;;;;292.70;151.80;;;;;;;;;;5015965;28;20304;-79
2022/11/12 14:02:32;;;;;;;339.27;168.90;;;;;;;;;;5011251;28;20220;-78
2022/11/12 14:04:58;;;;;;;373.17;186.53;;;;;;;;;;5002359;28;20252;-78
2022/11/12 14:07:33;;;;;;;326.80;165.47;;;;;;;;;;5004625;28;20303;-78
2022/11/12 14:10:07;;;;;;;354.67;174.97;;;;;;;;;;5006257;28;20211;-78
2022/11/12 14:12:45;;;;;;;345.60;166.00;;;;;;;;;;5000435;28;20214;-78
2022/11/12 14:15:17;;;;;;;380.57;187.27;;;;;;;;;;5013019;28;20188;-78
2022/11/12 14:17:54;;;;;;;349.57;169.70;;;;;;;;;;5010869;28;20708;-78
2022/11/12 14:20:24;;;;;;;329.73;160.30;;;;;;;;;;5010595;28;20333;-79
2022/11/12 14:22:50;;;;;;;281.50;144.20;;;;;;;;;;5008975;28;20433;-78
2022/11/12 14:25:18;;;;;;;350.13;171.63;;;;;;;;;;5006776;28;20220;-78
2022/11/12 14:27:44;;;;;;;265.00;136.20;;;;;;;;;;5017405;28;20189;-79
2022/11/12 14:30:11;;;;;;;317.43;156.13;;;;;;;;;;5009972;28;20204;-77
2022/11/12 14:32:38;;;;;;;361.53;185.53;;;;;;;;;;4997168;28;20230;-74
2022/11/12 14:35:22;;;;;;;301.37;149.90;;;;;;;;;;5017868;28;20299;-75
2022/11/12 14:37:58;;;;;;;355.97;173.83;;;;;;;;;;5022547;28;20836;-75
2022/11/12 14:40:25;;;;;;;286.33;143.93;;;;;;;;;;5013397;28;20258;-74